Time;durP1;ratioP1;P1;durP2;ratioP2;P2;SDS_P1;SDS_P2;PMS_P1;PMS_P2;Temp;Humidity;BMP_temperature;BMP_pressure;BME280_temperature;BME280_humidity;BME280_pressure;Samples;Min_cycle;Max_cycle;Signal;HPM_P1;HPM_P2
2023/06/24 04:02:08;;;;;;;0.60;0.10;;;19.90;18.60;;;;;;5293562;23;20585;-71
2023/06/24 04:04:36;;;;;;;0.60;0.20;;;19.90;28.10;;;;;;4946248;29;20494;-71
2023/06/24 04:07:05;;;;;;;0.60;0.20;;;20.00;21.40;;;;;;4937618;29;20953;-71
2023/06/24 04:09:34;;;;;;;0.60;0.10;;;20.00;20.60;;;;;;4938676;29;20461;-71
2023/06/24 04:12:02;;;;;;;0.60;0.20;;;20.00;19.70;;;;;;4948579;28;20518;-72
2023/06/24 04:14:30;;;;;;;0.60;0.20;;;;;;;;;;4961534;23;20588;-72
2023/06/24 04:16:58;;;;;;;0.60;0.10;;;20.10;16.90;;;;;;4962944;28;20553;-72
2023/06/24 04:19:27;;;;;;;0.60;0.20;;;20.10;16.00;;;;;;4967862;28;20446;-72
2023/06/24 04:21:55;;;;;;;0.60;0.10;;;20.10;15.10;;;;;;4964453;28;20439;-72
2023/06/24 04:24:23;;;;;;;0.60;0.20;;;20.10;16.30;;;;;;4974881;28;20470;-72
2023/06/24 04:26:50;;;;;;;0.70;0.20;;;20.10;16.10;;;;;;4975032;28;20474;-72
2023/06/24 04:29:18;;;;;;;0.60;0.10;;;18.20;14.70;;;;;;4971844;28;20478;-72
2023/06/24 04:31:46;;;;;;;0.60;0.20;;;20.10;14.50;;;;;;4966211;28;20961;-72
2023/06/24 04:34:14;;;;;;;0.60;0.10;;;;;;;;;;4959413;28;20483;-72
2023/06/24 04:36:44;;;;;;;0.60;0.10;;;20.10;16.70;;;;;;4968728;28;20895;-72
2023/06/24 04:39:11;;;;;;;0.60;0.20;;;20.20;17.00;;;;;;4974866;28;20487;-72
2023/06/24 04:41:39;;;;;;;0.60;0.10;;;20.20;15.60;;;;;;4974774;28;20504;-72
2023/06/24 04:44:07;;;;;;;0.70;0.30;;;20.30;15.40;;;;;;4958822;28;20558;-72
2023/06/24 04:46:35;;;;;;;0.60;0.20;;;20.30;14.60;;;;;;4945950;28;20556;-73
2023/06/24 04:49:03;;;;;;;0.60;0.20;;;20.30;14.00;;;;;;4966570;28;20442;-73
2023/06/24 04:51:31;;;;;;;0.60;0.13;;;20.40;14.10;;;;;;4974582;28;20556;-73
2023/06/24 04:54:01;;;;;;;0.60;0.10;;;20.40;13.00;;;;;;4974504;28;20445;-73
2023/06/24 04:56:28;;;;;;;0.60;0.17;;;20.40;13.50;;;;;;4962891;28;20485;-73
2023/06/24 04:58:56;;;;;;;0.60;0.10;;;20.40;13.40;;;;;;4936432;29;20449;-73
2023/06/24 05:01:24;;;;;;;0.60;0.20;;;20.30;13.50;;;;;;4938354;29;20539;-73
2023/06/24 05:03:52;;;;;;;0.60;0.10;;;20.20;14.40;;;;;;4962779;28;20457;-73
2023/06/24 05:06:20;;;;;;;0.70;0.40;;;;;;;;;;4969159;28;20462;-73
2023/06/24 05:08:48;;;;;;;0.60;0.10;;;20.20;15.70;;;;;;4943551;29;20531;-73
2023/06/24 05:11:17;;;;;;;1.40;0.97;;;20.20;15.70;;;;;;4936425;29;20455;-74
2023/06/24 05:13:45;;;;;;;0.70;0.50;;;20.10;15.30;;;;;;4936260;29;20539;-73
2023/06/24 05:16:13;;;;;;;0.60;0.13;;;20.10;16.40;;;;;;4935891;29;20496;-73
2023/06/24 05:18:41;;;;;;;0.80;0.43;;;20.10;17.10;;;;;;4935831;29;20510;-74
2023/06/24 05:21:09;;;;;;;0.60;0.20;;;20.10;16.20;;;;;;4947679;29;20462;-73
2023/06/24 05:23:37;;;;;;;1.60;1.50;;;20.10;17.30;;;;;;4955027;29;20457;-73
2023/06/24 05:26:05;;;;;;;0.60;0.10;;;20.10;17.60;;;;;;4955603;29;20499;-73
2023/06/24 05:28:34;;;;;;;0.80;0.67;;;20.10;17.60;;;;;;4955520;29;20529;-73
2023/06/24 05:31:02;;;;;;;0.60;0.10;;;20.20;17.30;;;;;;4954995;29;20483;-73
2023/06/24 05:33:30;;;;;;;0.60;0.10;;;20.30;17.00;;;;;;4941408;29;20460;-74
2023/06/24 05:35:58;;;;;;;0.60;0.10;;;20.30;16.90;;;;;;4935799;29;20492;-73
2023/06/24 05:38:27;;;;;;;0.60;0.20;;;20.30;15.10;;;;;;4935820;29;20483;-74
2023/06/24 05:40:55;;;;;;;0.60;0.10;;;20.40;15.40;;;;;;4936097;29;20530;-73
2023/06/24 05:43:22;;;;;;;0.60;0.20;;;20.40;15.00;;;;;;4964513;28;21021;-74
2023/06/24 05:45:52;;;;;;;0.60;0.20;;;20.50;14.60;;;;;;4946482;28;20555;-73
2023/06/24 05:48:19;;;;;;;0.60;0.10;;;20.50;13.60;;;;;;4955701;29;20444;-74
2023/06/24 05:50:47;;;;;;;1.03;0.70;;;20.40;14.50;;;;;;4952735;29;20467;-73
2023/06/24 05:53:15;;;;;;;0.60;0.10;;;20.40;15.00;;;;;;4953671;29;20455;-73
2023/06/24 05:55:43;;;;;;;0.63;0.17;;;20.40;15.70;;;;;;4958972;29;20911;-73
2023/06/24 05:58:11;;;;;;;0.60;0.10;;;20.50;16.80;;;;;;4957380;29;20447;-73
2023/06/24 06:00:39;;;;;;;0.60;0.10;;;20.60;14.50;;;;;;4956895;29;20451;-74
2023/06/24 06:03:09;;;;;;;0.60;0.10;;;20.50;14.60;;;;;;4954282;29;20454;-73
2023/06/24 06:05:37;;;;;;;0.60;0.20;;;20.50;15.00;;;;;;4955165;28;20459;-73
2023/06/24 06:08:05;;;;;;;0.60;0.10;;;20.60;15.30;;;;;;4954991;28;20530;-73
2023/06/24 06:10:33;;;;;;;0.60;0.10;;;20.60;14.20;;;;;;4961640;28;20484;-74
2023/06/24 06:13:00;;;;;;;0.60;0.20;;;20.70;13.60;;;;;;4955726;29;20568;-74
2023/06/24 06:15:28;;;;;;;0.60;0.20;;;20.70;13.90;;;;;;4954306;28;20509;-74
2023/06/24 06:17:56;;;;;;;0.60;0.20;;;19.40;12.20;;;;;;4962773;29;20457;-72
2023/06/24 06:20:25;;;;;;;0.60;0.20;;;20.80;12.80;;;;;;4965885;29;20507;-72
2023/06/24 06:22:53;;;;;;;0.60;0.20;;;20.70;12.00;;;;;;4965512;29;20447;-73
2023/06/24 06:25:21;;;;;;;0.60;0.30;;;;;;;;;;4959825;29;20527;-72
2023/06/24 06:27:49;;;;;;;0.60;0.13;;;20.80;12.40;;;;;;4956594;29;20457;-72
2023/06/24 06:30:18;;;;;;;0.60;0.10;;;;;;;;;;4943722;29;20509;-73
2023/06/24 06:32:46;;;;;;;0.60;0.10;;;20.80;11.80;;;;;;4939718;29;20457;-72
2023/06/24 06:35:14;;;;;;;0.60;0.20;;;;;;;;;;4937182;29;20575;-74
2023/06/24 06:37:44;;;;;;;0.60;0.10;;;21.10;11.30;;;;;;4937602;29;20549;-74
2023/06/24 06:40:12;;;;;;;2.00;1.80;;;21.20;8.80;;;;;;4955598;29;20461;-74
2023/06/24 06:42:42;;;;;;;0.60;0.10;;;;;;;;;;4963459;29;20459;-73
2023/06/24 06:45:11;;;;;;;0.60;0.30;;;21.20;8.40;;;;;;4967839;28;20475;-73
2023/06/24 06:47:45;;;;;;;0.60;0.10;;;;;;;;;;4961873;29;20443;-73
2023/06/24 06:50:13;;;;;;;0.60;0.20;;;21.40;6.40;;;;;;4945961;29;20455;-74
2023/06/24 06:52:42;;;;;;;0.60;0.10;;;21.40;6.30;;;;;;4942107;29;20508;-74
2023/06/24 06:55:10;;;;;;;0.60;0.20;;;21.50;5.60;;;;;;4953476;28;20907;-73
2023/06/24 06:57:41;;;;;;;0.93;0.93;;;21.60;5.60;;;;;;4972138;28;20488;-75
2023/06/24 07:00:10;;;;;;;0.60;0.10;;;21.60;5.40;;;;;;4941859;28;20510;-72
2023/06/24 07:02:38;;;;;;;0.60;0.10;;;21.70;5.70;;;;;;4955809;28;20530;-73
2023/06/24 07:05:06;;;;;;;0.70;0.20;;;21.80;4.60;;;;;;4968215;28;20467;-69
2023/06/24 07:07:35;;;;;;;0.60;0.20;;;;;;;;;;4959393;29;20918;-69
2023/06/24 07:10:04;;;;;;;0.63;0.20;;;22.00;1.20;;;;;;4959228;29;20542;-69
2023/06/24 07:12:32;;;;;;;0.60;0.17;;;22.00;1.30;;;;;;4954760;29;20484;-71
2023/06/24 07:15:00;;;;;;;0.70;0.10;;;22.00;1.00;;;;;;4959575;29;21056;-69
2023/06/24 07:17:28;;;;;;;0.70;0.20;;;22.00;1.30;;;;;;4959403;28;21008;-69
2023/06/24 07:19:56;;;;;;;0.60;0.10;;;21.90;1.10;;;;;;4959200;29;20456;-69
2023/06/24 07:22:24;;;;;;;0.60;0.10;;;;;;;;;;4956928;28;20446;-69
2023/06/24 07:24:52;;;;;;;0.60;0.10;;;;;;;;;;4940636;29;20480;-70
2023/06/24 07:27:21;;;;;;;0.60;0.10;;;22.10;1.30;;;;;;4949621;29;20450;-69
2023/06/24 07:29:49;;;;;;;0.70;0.10;;;22.20;1.40;;;;;;4950602;29;20479;-69
2023/06/24 07:32:17;;;;;;;0.67;0.20;;;22.20;1.30;;;;;;4949623;29;20602;-68
2023/06/24 07:34:45;;;;;;;1.00;0.20;;;;;;;;;;4948020;29;20476;-68
2023/06/24 07:37:13;;;;;;;0.70;0.10;;;;;;;;;;4958622;28;20484;-69
2023/06/24 07:39:52;;;;;;;0.70;0.20;;;22.40;1.00;;;;;;4959397;29;20447;-68
2023/06/24 07:42:21;;;;;;;0.67;0.10;;;22.50;1.00;;;;;;4959051;29;20503;-68
2023/06/24 07:44:49;;;;;;;0.70;0.10;;;22.60;1.00;;;;;;4958340;29;20528;-68
2023/06/24 07:47:18;;;;;;;0.70;0.10;;;22.70;1.00;;;;;;4960701;28;20471;-69
2023/06/24 07:49:46;;;;;;;0.70;0.10;;;22.70;1.00;;;;;;4966876;28;20470;-68
2023/06/24 07:52:14;;;;;;;0.70;0.10;;;;;;;;;;4967759;28;20451;-68
2023/06/24 07:54:43;;;;;;;1.23;0.27;;;22.90;1.00;;;;;;4978425;28;20450;-68
2023/06/24 07:57:11;;;;;;;0.70;0.20;;;23.00;1.00;;;;;;4973924;28;20483;-68
2023/06/24 07:59:41;;;;;;;0.70;0.20;;;23.00;1.00;;;;;;4959114;28;20464;-69
2023/06/24 08:02:09;;;;;;;0.70;0.10;;;23.00;1.00;;;;;;4967125;28;20853;-70
2023/06/24 08:04:37;;;;;;;1.13;0.20;;;23.30;1.00;;;;;;4975505;28;20451;-69
2023/06/24 08:07:06;;;;;;;0.70;0.10;;;23.30;1.00;;;;;;4961859;28;20506;-70
2023/06/24 08:09:34;;;;;;;0.70;0.17;;;23.40;1.00;;;;;;4943541;28;20477;-71
2023/06/24 08:12:02;;;;;;;0.70;0.10;;;23.50;1.00;;;;;;4961162;28;21019;-71
2023/06/24 08:14:29;;;;;;;0.70;0.20;;;23.60;1.00;;;;;;4947006;28;20559;-71
2023/06/24 08:16:59;;;;;;;0.70;0.10;;;23.70;1.00;;;;;;4953257;29;21016;-71
2023/06/24 08:19:26;;;;;;;0.70;0.10;;;23.80;1.00;;;;;;4947121;29;20493;-71
2023/06/24 08:21:54;;;;;;;0.70;0.10;;;23.90;1.00;;;;;;4943756;29;20538;-71
2023/06/24 08:24:22;;;;;;;0.70;0.20;;;;;;;;;;4946212;29;20449;-71
2023/06/24 08:26:51;;;;;;;0.70;0.20;;;;;;;;;;4946738;29;20472;-69
2023/06/24 08:29:19;;;;;;;0.70;0.20;;;24.10;1.00;;;;;;4947260;29;20792;-69
2023/06/24 08:31:46;;;;;;;0.70;0.20;;;24.20;1.00;;;;;;4945839;29;20509;-69
2023/06/24 08:34:15;;;;;;;0.70;0.10;;;24.20;1.00;;;;;;4949734;29;20451;-69
2023/06/24 08:36:43;;;;;;;0.70;0.17;;;24.20;1.00;;;;;;4955009;29;20972;-68
2023/06/24 08:39:11;;;;;;;0.70;0.20;;;24.00;1.00;;;;;;4955589;29;20462;-70
2023/06/24 08:41:39;;;;;;;0.70;0.20;;;24.20;1.00;;;;;;4952842;28;20564;-69
2023/06/24 08:44:10;;;;;;;0.70;0.20;;;24.20;1.00;;;;;;4956875;28;20458;-69
2023/06/24 08:46:38;;;;;;;0.70;0.10;;;;;;;;;;4958497;28;20867;-69
2023/06/24 08:49:20;;;;;;;1.30;1.20;;;24.20;1.00;;;;;;4956725;28;21023;-69
2023/06/24 08:52:08;;;;;;;0.87;0.47;;;24.20;1.00;;;;;;4946159;29;20960;-69
2023/06/24 08:54:38;;;;;;;0.80;0.20;;;24.30;1.00;;;;;;4951350;29;20442;-69
2023/06/24 08:57:08;;;;;;;0.70;0.10;;;;;;;;;;4949753;29;20514;-70
2023/06/24 08:59:38;;;;;;;0.70;0.20;;;24.50;1.00;;;;;;4944764;29;20504;-68
2023/06/24 09:02:06;;;;;;;0.70;0.20;;;24.50;1.00;;;;;;4950184;28;20606;-68
2023/06/24 09:04:34;;;;;;;0.70;0.10;;;24.50;1.00;;;;;;4964134;28;20511;-68
2023/06/24 09:07:04;;;;;;;0.70;0.13;;;24.60;1.00;;;;;;4957219;28;20452;-69
2023/06/24 09:09:43;;;;;;;0.70;0.10;;;24.70;1.00;;;;;;4946755;29;20481;-68
2023/06/24 09:12:12;;;;;;;0.70;0.20;;;24.80;1.00;;;;;;4953660;29;20895;-67
2023/06/24 09:14:49;;;;;;;0.80;0.20;;;24.90;1.00;;;;;;4953971;29;20523;-69
2023/06/24 09:17:18;;;;;;;0.70;0.10;;;24.90;1.00;;;;;;4936043;29;20573;-69
2023/06/24 09:19:46;;;;;;;2.73;2.63;;;25.10;1.00;;;;;;4937093;29;20444;-69
2023/06/24 09:22:17;;;;;;;0.70;0.20;;;25.00;1.00;;;;;;4935656;29;20885;-69
2023/06/24 09:24:47;;;;;;;1.07;0.20;;;25.00;1.00;;;;;;4936469;29;20993;-69
2023/06/24 09:27:16;;;;;;;0.70;0.10;;;25.00;1.00;;;;;;4955279;29;20860;-69
2023/06/24 09:29:44;;;;;;;0.70;0.20;;;25.00;1.00;;;;;;4954944;29;20447;-69
2023/06/24 09:32:12;;;;;;;0.70;0.13;;;25.00;1.00;;;;;;4955369;29;20604;-68
2023/06/24 09:34:40;;;;;;;0.80;0.20;;;25.10;1.00;;;;;;4940122;29;20483;-69
2023/06/24 09:37:08;;;;;;;0.70;0.10;;;25.10;1.00;;;;;;4935376;29;20574;-68
2023/06/24 09:39:39;;;;;;;0.70;0.10;;;25.20;1.00;;;;;;4935648;29;20450;-68
2023/06/24 09:42:08;;;;;;;0.70;0.10;;;25.20;1.00;;;;;;4935536;29;20455;-69
2023/06/24 09:44:35;;;;;;;1.10;0.27;;;25.30;1.00;;;;;;4948195;29;20548;-68
2023/06/24 09:47:04;;;;;;;0.70;0.20;;;25.30;1.00;;;;;;4954317;29;20493;-69
2023/06/24 09:49:32;;;;;;;0.70;0.20;;;;;;;;;;4954296;29;20670;-69
2023/06/24 09:52:02;;;;;;;0.80;0.40;;;25.50;1.00;;;;;;4953876;29;20484;-69
2023/06/24 09:54:30;;;;;;;0.90;0.20;;;25.60;1.00;;;;;;4954369;29;20453;-69
2023/06/24 09:57:05;;;;;;;0.70;0.20;;;25.70;1.00;;;;;;4935324;29;20542;-68
2023/06/24 09:59:34;;;;;;;0.70;0.20;;;25.70;1.00;;;;;;4935354;29;20451;-68
2023/06/24 10:02:04;;;;;;;0.70;0.10;;;25.80;1.00;;;;;;4935112;29;20482;-69
2023/06/24 10:04:33;;;;;;;0.70;0.10;;;25.90;1.00;;;;;;4934910;29;20558;-68
2023/06/24 10:07:02;;;;;;;0.70;0.10;;;25.90;1.00;;;;;;4936114;29;20458;-69
2023/06/24 10:09:30;;;;;;;0.87;0.30;;;25.90;1.00;;;;;;4935453;29;20483;-67
2023/06/24 10:12:00;;;;;;;0.70;0.10;;;25.90;1.00;;;;;;4951452;29;20533;-67
2023/06/24 10:14:29;;;;;;;9.33;8.70;;;25.90;1.00;;;;;;4953665;29;20446;-68
2023/06/24 10:17:03;;;;;;;0.70;0.20;;;25.90;1.00;;;;;;4951060;23;20502;-71
2023/06/24 10:19:39;;;;;;;0.70;0.20;;;26.00;1.00;;;;;;4932973;29;20557;-70
2023/06/24 10:22:09;;;;;;;1.13;1.03;;;26.10;1.00;;;;;;4935033;29;20730;-73
2023/06/24 10:24:44;;;;;;;0.70;0.20;;;26.10;1.00;;;;;;4934166;29;20514;-72
2023/06/24 10:27:16;;;;;;;0.70;0.13;;;26.20;1.00;;;;;;4916026;29;20559;-75
2023/06/24 10:29:48;;;;;;;0.70;0.10;;;26.30;1.00;;;;;;4920181;29;20514;-73
2023/06/24 10:32:17;;;;;;;0.73;0.23;;;26.40;1.00;;;;;;4934298;29;20803;-71
2023/06/24 10:34:46;;;;;;;0.70;0.10;;;26.30;1.00;;;;;;4934584;29;20443;-73
2023/06/24 10:37:18;;;;;;;0.70;0.10;;;26.40;1.00;;;;;;4934654;29;20498;-72
2023/06/24 10:39:51;;;;;;;0.70;0.10;;;26.50;1.00;;;;;;4934331;29;20506;-74
2023/06/24 10:42:48;;;;;;;1.10;0.40;;;26.50;1.00;;;;;;4934969;29;20562;-73
2023/06/24 10:45:22;;;;;;;0.70;0.20;;;26.40;1.00;;;;;;4927384;29;20550;-72
2023/06/24 10:47:56;;;;;;;0.70;0.20;;;26.50;1.00;;;;;;4935427;29;20462;-75
2023/06/24 10:50:26;;;;;;;0.80;0.30;;;26.40;1.00;;;;;;4936815;29;20582;-73
2023/06/24 10:52:56;;;;;;;0.70;0.10;;;26.40;1.00;;;;;;4932357;29;20979;-74
2023/06/24 10:55:29;;;;;;;0.83;0.53;;;26.40;1.00;;;;;;4938472;29;20530;-76
2023/06/24 10:58:08;;;;;;;0.70;0.20;;;26.30;1.00;;;;;;4935890;29;20479;-73
2023/06/24 11:00:41;;;;;;;0.70;0.20;;;26.10;1.00;;;;;;4930643;29;20464;-74
2023/06/24 11:03:10;;;;;;;0.70;0.10;;;26.00;1.00;;;;;;4934004;29;20502;-72
2023/06/24 11:05:41;;;;;;;0.70;0.20;;;26.00;1.00;;;;;;4931279;29;21005;-74
2023/06/24 11:08:10;;;;;;;0.70;0.20;;;25.90;1.00;;;;;;4934358;29;20487;-71
2023/06/24 11:10:45;;;;;;;1.10;0.57;;;26.10;1.00;;;;;;4935430;29;20467;-73
2023/06/24 11:13:14;;;;;;;0.80;0.40;;;26.10;1.00;;;;;;4931966;29;20476;-72
2023/06/24 11:15:43;;;;;;;0.70;0.20;;;26.30;1.00;;;;;;4934422;29;20511;-71
2023/06/24 11:18:11;;;;;;;0.70;0.30;;;;;;;;;;4931434;29;21095;-72
2023/06/24 11:20:40;;;;;;;0.70;0.10;;;26.60;1.00;;;;;;4931899;29;20554;-73
2023/06/24 11:23:10;;;;;;;0.70;0.30;;;26.90;1.00;;;;;;4931961;29;20487;-74
2023/06/24 11:25:43;;;;;;;0.70;0.10;;;27.00;1.00;;;;;;4933159;29;20562;-73
2023/06/24 11:28:15;;;;;;;0.70;0.10;;;27.00;1.00;;;;;;4925205;29;20473;-73
2023/06/24 11:30:46;;;;;;;0.70;0.10;;;27.30;1.00;;;;;;4931112;29;20535;-73
2023/06/24 11:33:16;;;;;;;0.80;0.50;;;27.40;1.00;;;;;;4932831;29;20551;-74
2023/06/24 11:35:44;;;;;;;0.90;0.73;;;27.50;1.00;;;;;;4926469;29;20942;-73
2023/06/24 11:38:12;;;;;;;4.63;0.73;;;27.50;1.00;;;;;;4936952;29;20479;-74
2023/06/24 11:40:40;;;;;;;0.70;0.20;;;27.50;1.00;;;;;;4938182;29;20451;-73
2023/06/24 11:43:08;;;;;;;0.70;0.20;;;27.50;1.00;;;;;;4937237;29;20482;-70
2023/06/24 11:45:36;;;;;;;0.70;0.10;;;27.60;1.00;;;;;;4938048;29;21048;-71
2023/06/24 11:48:07;;;;;;;0.70;0.10;;;27.60;1.00;;;;;;4940389;29;20439;-71
2023/06/24 11:50:37;;;;;;;0.70;0.10;;;27.70;1.00;;;;;;4942532;29;20451;-71
2023/06/24 11:53:05;;;;;;;0.70;0.20;;;27.70;1.00;;;;;;4937817;29;20475;-72
2023/06/24 11:55:33;;;;;;;1.00;0.40;;;27.80;1.00;;;;;;4929883;29;20830;-70
2023/06/24 11:58:04;;;;;;;0.70;0.20;;;27.80;1.00;;;;;;4938641;29;20266;-70
2023/06/24 12:00:33;;;;;;;0.70;0.17;;;27.80;1.00;;;;;;4937735;29;20436;-71
2023/06/24 12:03:03;;;;;;;0.70;0.20;;;27.80;1.00;;;;;;4937178;29;20462;-69
2023/06/24 12:05:37;;;;;;;0.70;0.20;;;27.80;1.00;;;;;;4937591;29;20478;-68
2023/06/24 12:08:06;;;;;;;0.70;0.10;;;;;;;;;;4937258;29;20573;-69
2023/06/24 12:10:35;;;;;;;2.40;1.60;;;27.90;1.00;;;;;;4937156;29;20458;-70
2023/06/24 12:13:06;;;;;;;0.70;0.10;;;;;;;;;;4936791;29;20528;-72
2023/06/24 12:15:35;;;;;;;1.40;1.30;;;28.20;1.00;;;;;;4936340;29;20518;-72
2023/06/24 12:18:08;;;;;;;0.70;0.20;;;28.20;1.00;;;;;;4937117;29;20479;-71
2023/06/24 12:20:40;;;;;;;0.70;0.20;;;;;;;;;;4936014;29;20871;-70
2023/06/24 12:23:09;;;;;;;0.70;0.10;;;28.30;1.00;;;;;;4935372;29;20460;-71
2023/06/24 12:25:37;;;;;;;0.70;0.13;;;28.40;1.00;;;;;;4936870;29;20997;-71
2023/06/24 12:28:08;;;;;;;0.70;0.20;;;28.30;1.00;;;;;;4937013;29;20994;-70
2023/06/24 12:30:36;;;;;;;0.70;0.10;;;28.30;1.00;;;;;;4936968;29;20459;-71
2023/06/24 12:33:04;;;;;;;1.27;0.33;;;28.40;1.00;;;;;;4931310;29;20522;-70
2023/06/24 12:35:33;;;;;;;0.70;0.10;;;;;;;;;;4928068;29;20459;-71
2023/06/24 12:38:04;;;;;;;0.77;0.30;;;28.60;1.00;;;;;;4927542;29;20454;-71
2023/06/24 12:40:32;;;;;;;0.87;0.53;;;28.80;1.00;;;;;;4926874;29;20449;-71
2023/06/24 12:43:01;;;;;;;0.70;0.10;;;28.80;1.00;;;;;;4917998;29;20467;-72
2023/06/24 12:45:34;;;;;;;0.70;0.10;;;28.70;1.00;;;;;;4917894;29;20472;-72
2023/06/24 12:48:05;;;;;;;0.70;0.20;;;28.80;1.00;;;;;;4918244;29;20499;-72
2023/06/24 12:50:32;;;;;;;0.70;0.20;;;28.80;1.00;;;;;;4923555;29;20452;-71
2023/06/24 12:53:05;;;;;;;0.70;0.10;;;29.00;1.00;;;;;;4934719;29;20503;-70
2023/06/24 12:55:34;;;;;;;0.70;0.20;;;29.10;1.00;;;;;;4917947;29;20473;-71
2023/06/24 12:58:05;;;;;;;0.70;0.13;;;;;;;;;;4918032;29;20535;-70
2023/06/24 13:00:36;;;;;;;0.70;0.20;;;;;;;;;;4932656;29;20492;-70
2023/06/24 13:03:12;;;;;;;0.70;0.20;;;;;;;;;;4932673;29;20486;-71
2023/06/24 13:05:42;;;;;;;0.70;0.20;;;28.90;1.00;;;;;;4932952;29;20476;-71
2023/06/24 13:08:12;;;;;;;0.70;0.20;;;28.80;1.00;;;;;;4936928;29;20440;-73
2023/06/24 13:10:41;;;;;;;0.70;0.20;;;28.70;1.00;;;;;;4935073;29;20857;-74
2023/06/24 13:13:10;;;;;;;0.70;0.20;;;;;;;;;;4924978;29;20528;-73
2023/06/24 13:15:38;;;;;;;0.70;0.10;;;28.40;1.00;;;;;;4928790;29;21140;-71
2023/06/24 13:18:09;;;;;;;0.70;0.20;;;28.30;1.00;;;;;;4935298;29;20480;-72
2023/06/24 13:20:37;;;;;;;0.90;0.67;;;28.30;1.00;;;;;;4920486;29;20511;-72
2023/06/24 13:23:05;;;;;;;0.70;0.10;;;28.20;1.00;;;;;;4934833;29;20500;-72
2023/06/24 13:25:34;;;;;;;1.03;0.50;;;28.10;1.00;;;;;;4927480;29;20472;-71
2023/06/24 13:28:08;;;;;;;0.70;0.20;;;28.10;1.00;;;;;;4935668;29;21001;-72
2023/06/24 13:30:39;;;;;;;0.70;0.10;;;28.10;1.00;;;;;;4922174;29;20459;-72
2023/06/24 13:33:07;;;;;;;0.70;0.20;;;;;;;;;;4935366;29;20894;-72
2023/06/24 13:35:36;;;;;;;0.70;0.10;;;27.90;1.00;;;;;;4935585;29;20460;-73
2023/06/24 13:38:05;;;;;;;0.70;0.10;;;;;;;;;;4935418;29;20460;-71
2023/06/24 13:40:35;;;;;;;0.70;0.20;;;27.80;1.00;;;;;;4934669;29;20546;-71
2023/06/24 13:43:04;;;;;;;0.70;0.10;;;;;;;;;;4930631;29;20456;-73
2023/06/24 13:45:34;;;;;;;0.90;0.80;;;27.80;1.00;;;;;;4932394;29;20483;-71
2023/06/24 13:48:03;;;;;;;0.70;0.10;;;27.90;1.00;;;;;;4928652;29;20447;-73
2023/06/24 13:50:31;;;;;;;0.70;0.20;;;;;;;;;;4930011;29;20467;-72
2023/06/24 13:53:03;;;;;;;0.70;0.20;;;28.00;1.00;;;;;;4929351;29;20571;-71
2023/06/24 13:55:32;;;;;;;0.70;0.20;;;;;;;;;;4932323;29;20519;-72
2023/06/24 13:58:01;;;;;;;0.70;0.20;;;27.90;1.00;;;;;;4929891;29;20503;-70
2023/06/24 14:00:30;;;;;;;0.70;0.20;;;27.90;1.00;;;;;;4936054;29;20574;-72
2023/06/24 14:03:03;;;;;;;0.70;0.10;;;;;;;;;;4936389;29;20467;-74
2023/06/24 14:05:34;;;;;;;0.70;0.10;;;28.00;1.00;;;;;;4928828;29;20478;-73
2023/06/24 14:08:02;;;;;;;0.70;0.10;;;28.00;1.00;;;;;;4936564;29;20538;-72
2023/06/24 14:10:29;;;;;;;0.70;0.30;;;28.40;1.00;;;;;;4934300;29;20523;-72
2023/06/24 14:12:57;;;;;;;0.70;0.20;;;28.40;1.00;;;;;;4935755;29;20495;-72
2023/06/24 14:15:27;;;;;;;0.93;0.60;;;28.70;1.00;;;;;;4934846;29;21018;-72
2023/06/24 14:17:55;;;;;;;1.10;0.77;;;;;;;;;;4934242;29;20455;-73
2023/06/24 14:20:26;;;;;;;0.70;0.20;;;;;;;;;;4938182;29;20510;-73
2023/06/24 14:22:54;;;;;;;0.70;0.20;;;29.00;1.00;;;;;;4937075;29;20478;-73
2023/06/24 14:25:23;;;;;;;0.70;0.20;;;29.20;1.00;;;;;;4938320;29;20461;-72
2023/06/24 14:27:52;;;;;;;0.70;0.10;;;29.30;1.00;;;;;;4938388;29;20443;-73
2023/06/24 14:30:21;;;;;;;0.70;0.20;;;;;;;;;;4938024;29;20437;-72
2023/06/24 14:32:51;;;;;;;0.70;0.20;;;;;;;;;;4937678;29;20455;-72
2023/06/24 14:35:21;;;;;;;2.60;0.97;;;;;;;;;;4936774;29;20568;-74
2023/06/24 14:37:53;;;;;;;0.70;0.20;;;;;;;;;;4936343;29;20458;-75
2023/06/24 14:40:22;;;;;;;0.70;0.20;;;;;;;;;;4936243;29;20569;-73
2023/06/24 14:42:50;;;;;;;0.70;0.10;;;;;;;;;;4935720;29;20491;-73
2023/06/24 14:45:21;;;;;;;0.70;0.20;;;;;;;;;;4935223;29;20471;-74
2023/06/24 14:47:57;;;;;;;0.70;0.10;;;29.20;1.00;;;;;;4934945;29;20460;-73
2023/06/24 14:50:26;;;;;;;0.70;0.20;;;;;;;;;;4935080;29;20483;-74
2023/06/24 14:52:55;;;;;;;0.70;0.10;;;29.30;1.00;;;;;;4931626;29;20440;-70
2023/06/24 14:55:23;;;;;;;0.70;0.17;;;29.40;1.00;;;;;;4934341;29;20966;-73
2023/06/24 14:57:52;;;;;;;0.70;0.10;;;;;;;;;;4933212;29;20463;-71
2023/06/24 15:00:23;;;;;;;0.70;0.10;;;29.30;1.00;;;;;;4934124;29;20571;-70
2023/06/24 15:02:53;;;;;;;0.70;0.10;;;;;;;;;;4934149;29;20538;-71
2023/06/24 15:05:23;;;;;;;0.70;0.10;;;;;;;;;;4934677;29;20463;-72
2023/06/24 15:07:51;;;;;;;0.70;0.20;;;29.40;1.00;;;;;;4938261;29;20444;-72
2023/06/24 15:10:20;;;;;;;0.70;0.30;;;29.50;1.00;;;;;;4937988;29;20830;-72
2023/06/24 15:12:55;;;;;;;0.70;0.20;;;;;;;;;;4937613;29;20544;-72
2023/06/24 15:15:24;;;;;;;0.70;0.20;;;;;;;;;;4938133;29;20542;-73
2023/06/24 15:17:57;;;;;;;0.70;0.10;;;;;;;;;;4938435;29;20523;-72
2023/06/24 15:20:28;;;;;;;0.70;0.20;;;;;;;;;;4938186;29;20484;-73
2023/06/24 15:23:03;;;;;;;0.70;0.20;;;;;;;;;;4937164;29;20835;-71
2023/06/24 15:25:31;;;;;;;0.70;0.20;;;29.40;1.00;;;;;;4937795;29;20555;-75
2023/06/24 15:27:59;;;;;;;0.77;0.37;;;29.30;1.00;;;;;;4936577;29;20445;-73
2023/06/24 15:30:32;;;;;;;0.70;0.10;;;29.20;1.00;;;;;;4936817;29;20546;-72
2023/06/24 15:33:05;;;;;;;0.90;0.63;;;;;;;;;;4936716;29;20451;-73
2023/06/24 15:35:38;;;;;;;0.70;0.10;;;;;;;;;;4935886;29;20489;-73
2023/06/24 15:38:07;;;;;;;0.70;0.30;;;;;;;;;;4935894;29;20986;-72
2023/06/24 15:40:35;;;;;;;0.70;0.20;;;;;;;;;;4927551;29;20476;-71
2023/06/24 15:43:04;;;;;;;0.70;0.27;;;;;;;;;;4936143;29;20477;-71
2023/06/24 15:45:33;;;;;;;1.50;1.40;;;;;;;;;;4937770;29;20486;-71
2023/06/24 15:48:02;;;;;;;0.70;0.20;;;;;;;;;;4937765;29;20843;-71
2023/06/24 15:50:35;;;;;;;0.70;0.10;;;;;;;;;;4937175;29;20462;-69
2023/06/24 15:53:06;;;;;;;0.70;0.20;;;;;;;;;;4937428;29;20823;-70
2023/06/24 15:55:43;;;;;;;0.70;0.20;;;29.90;1.00;;;;;;4938509;29;20512;-70
2023/06/24 15:58:14;;;;;;;0.70;0.30;;;29.90;1.00;;;;;;4937934;29;20461;-71
2023/06/24 16:00:42;;;;;;;1.67;1.53;;;29.90;1.00;;;;;;4926226;29;20483;-71
2023/06/24 16:03:09;;;;;;;1.03;0.50;;;29.90;1.00;;;;;;4937493;29;20461;-70
2023/06/24 16:05:38;;;;;;;2.90;1.33;;;29.70;1.00;;;;;;4937692;29;20465;-71
2023/06/24 16:08:07;;;;;;;1.20;0.93;;;29.70;1.00;;;;;;4937334;29;20453;-71
2023/06/24 16:10:35;;;;;;;0.70;0.27;;;29.70;1.00;;;;;;4934302;29;20441;-71
2023/06/24 16:13:04;;;;;;;0.70;0.20;;;29.80;1.00;;;;;;4927373;29;20455;-71
2023/06/24 16:15:32;;;;;;;0.70;0.20;;;29.90;1.00;;;;;;4926585;29;20481;-70
2023/06/24 16:17:59;;;;;;;0.70;0.20;;;30.10;1.00;;;;;;4964921;23;20496;-67
2023/06/24 16:20:27;;;;;;;0.70;0.20;;;30.20;1.00;;;;;;4962508;28;20483;-68
2023/06/24 16:22:55;;;;;;;0.70;0.20;;;30.20;1.00;;;;;;4956250;29;20479;-68
2023/06/24 16:25:24;;;;;;;0.70;0.20;;;30.20;1.00;;;;;;4956397;29;20859;-69
2023/06/24 16:27:52;;;;;;;0.70;0.20;;;30.40;1.00;;;;;;4955691;29;20509;-68
2023/06/24 16:30:21;;;;;;;0.70;0.20;;;30.60;1.00;;;;;;4956244;28;20475;-69
2023/06/24 16:32:49;;;;;;;0.70;0.20;;;30.60;1.00;;;;;;4955676;28;21011;-70
2023/06/24 16:35:17;;;;;;;1.20;0.60;;;30.50;1.00;;;;;;4956005;28;20957;-67
2023/06/24 16:37:45;;;;;;;0.70;0.10;;;30.20;1.00;;;;;;4969978;28;20492;-66
2023/06/24 16:40:14;;;;;;;0.70;0.10;;;30.00;1.00;;;;;;4973485;28;20450;-67
2023/06/24 16:42:43;;;;;;;0.80;0.43;;;29.90;1.00;;;;;;4967993;28;20469;-66
2023/06/24 16:45:11;;;;;;;0.70;0.10;;;29.90;1.00;;;;;;4974596;28;21194;-66
2023/06/24 16:47:39;;;;;;;0.70;0.10;;;29.70;1.00;;;;;;4974509;28;20471;-66
2023/06/24 16:50:08;;;;;;;0.70;0.17;;;29.60;1.00;;;;;;4973810;28;20949;-66
2023/06/24 16:52:35;;;;;;;0.70;0.20;;;29.60;1.00;;;;;;4974052;28;20445;-67
2023/06/24 16:55:04;;;;;;;0.90;0.40;;;29.60;1.00;;;;;;4969789;28;21184;-66
2023/06/24 16:57:32;;;;;;;0.70;0.10;;;29.50;1.00;;;;;;4963606;28;20544;-66
2023/06/24 17:00:01;;;;;;;0.70;0.10;;;29.50;1.00;;;;;;4972070;28;20538;-66
2023/06/24 17:02:31;;;;;;;0.70;0.17;;;29.80;1.00;;;;;;4978583;28;20483;-66
2023/06/24 17:04:59;;;;;;;0.70;0.30;;;30.10;1.00;;;;;;4985041;28;20453;-65
2023/06/24 17:07:27;;;;;;;0.70;0.20;;;30.40;1.00;;;;;;4985059;28;20488;-65
2023/06/24 17:09:55;;;;;;;0.70;0.10;;;30.70;1.00;;;;;;4982984;28;20437;-66
2023/06/24 17:12:23;;;;;;;0.70;0.20;;;31.00;1.00;;;;;;4984067;28;20467;-65
2023/06/24 17:14:51;;;;;;;0.70;0.10;;;31.30;1.00;;;;;;4984361;28;20511;-67
2023/06/24 17:17:20;;;;;;;0.80;0.53;;;31.50;1.00;;;;;;4983760;28;20483;-67
2023/06/24 17:19:48;;;;;;;0.70;0.20;;;31.50;1.00;;;;;;4981693;28;20461;-67
2023/06/24 17:22:16;;;;;;;0.70;0.20;;;31.80;1.00;;;;;;4981395;28;20523;-67
2023/06/24 17:24:43;;;;;;;0.70;0.30;;;32.10;1.00;;;;;;4983823;28;20545;-68